createdAt,value
2023-05-21T00:00:53.824Z,11.70
2023-05-21T00:03:21.144Z,12.52
2023-05-21T00:05:50.263Z,12.23
2023-05-21T00:08:17.103Z,11.65
2023-05-21T00:10:43.890Z,11.18
2023-05-21T00:13:10.536Z,12.70
2023-05-21T00:15:37.770Z,12.88
2023-05-21T00:18:04.862Z,12.63
2023-05-21T00:20:35.601Z,12.40
2023-05-21T00:23:02.864Z,12.38
2023-05-21T00:25:29.574Z,12.63
2023-05-21T00:27:56.588Z,12.68
2023-05-21T00:30:23.513Z,11.45
2023-05-21T00:32:50.702Z,12.00
2023-05-21T00:35:18.287Z,12.10
2023-05-21T00:37:45.407Z,12.52
2023-05-21T00:40:12.907Z,12.23
2023-05-21T00:42:39.554Z,11.68
2023-05-21T00:45:07.783Z,12.65
2023-05-21T00:47:35.452Z,12.18
2023-05-21T00:50:03.989Z,12.45
2023-05-21T00:52:31.015Z,12.45
2023-05-21T00:54:57.901Z,13.35
2023-05-21T00:57:27.241Z,12.52
2023-05-21T00:59:54.589Z,11.93
2023-05-21T01:02:24.188Z,12.10
2023-05-21T01:04:54.532Z,12.73
2023-05-21T01:07:21.860Z,13.48
2023-05-21T01:09:48.709Z,12.85
2023-05-21T01:12:15.524Z,12.77
2023-05-21T01:14:42.622Z,13.15
2023-05-21T01:17:10.572Z,13.23
2023-05-21T01:19:37.547Z,13.15
2023-05-21T01:22:07.287Z,13.38
2023-05-21T01:24:34.197Z,13.23
2023-05-21T01:27:02.406Z,13.10
2023-05-21T01:29:29.307Z,13.15
2023-05-21T01:32:18.107Z,13.02
2023-05-21T01:34:56.225Z,13.10
2023-05-21T01:37:36.695Z,12.95
2023-05-21T01:40:17.914Z,12.90
2023-05-21T01:42:45.546Z,13.18
2023-05-21T01:45:17.609Z,13.90
2023-05-21T01:47:50.108Z,13.82
2023-05-21T01:50:18.774Z,13.85
2023-05-21T01:52:51.027Z,13.40
2023-05-21T01:55:18.445Z,14.35
2023-05-21T01:57:45.472Z,14.70
2023-05-21T02:00:13.398Z,14.73
2023-05-21T02:02:40.065Z,14.55
2023-05-21T02:05:07.094Z,15.05
2023-05-21T02:07:33.728Z,15.55
2023-05-21T02:11:21.785Z,14.48
2023-05-21T02:13:48.968Z,15.63
2023-05-21T02:16:15.980Z,14.55
2023-05-21T02:18:46.915Z,15.43
2023-05-21T02:21:13.850Z,14.35
2023-05-21T02:23:41.703Z,15.73
2023-05-21T02:26:08.535Z,15.20
2023-05-21T02:28:36.247Z,16.58
2023-05-21T02:31:02.989Z,16.38
2023-05-21T02:33:29.640Z,17.08
2023-05-21T02:35:56.402Z,16.88
2023-05-21T02:38:23.216Z,16.95
2023-05-21T02:40:53.758Z,16.90
2023-05-21T02:43:20.536Z,16.92
2023-05-21T02:45:47.595Z,17.60
2023-05-21T02:48:14.327Z,17.15
2023-05-21T02:50:40.958Z,19.27
2023-05-21T02:53:07.865Z,18.45
2023-05-21T02:55:34.747Z,17.60
2023-05-21T02:58:01.740Z,17.00
2023-05-21T03:00:28.481Z,17.08
2023-05-21T03:02:55.261Z,17.98
2023-05-21T03:05:22.028Z,18.33
2023-05-21T03:07:48.703Z,18.77
2023-05-21T03:10:15.633Z,17.85
2023-05-21T03:12:42.414Z,18.55
2023-05-21T03:15:09.609Z,18.90
2023-05-21T03:17:36.292Z,18.85
2023-05-21T03:20:04.769Z,19.08
2023-05-21T03:22:31.569Z,18.48
2023-05-21T03:24:58.210Z,19.27
2023-05-21T03:27:24.914Z,18.48
2023-05-21T03:29:51.862Z,19.02
2023-05-21T03:32:18.569Z,19.38
2023-05-21T03:34:45.450Z,19.75
2023-05-21T03:37:12.080Z,20.17
2023-05-21T03:39:38.898Z,21.08
2023-05-21T03:42:05.906Z,21.10
2023-05-21T03:44:32.773Z,21.13
2023-05-21T03:46:59.376Z,20.00
2023-05-21T03:49:26.765Z,21.17
2023-05-21T03:51:54.038Z,21.42
2023-05-21T03:54:20.676Z,21.90
2023-05-21T03:56:47.307Z,22.73
2023-05-21T03:59:13.922Z,22.10
2023-05-21T04:01:40.731Z,21.38
2023-05-21T04:04:07.464Z,20.48
2023-05-21T04:06:34.102Z,21.23
2023-05-21T04:09:01.174Z,21.58
2023-05-21T04:11:27.822Z,20.85
2023-05-21T04:13:54.440Z,19.75
2023-05-21T04:16:21.109Z,20.25
2023-05-21T04:18:48.057Z,20.90
2023-05-21T04:21:14.789Z,20.25
2023-05-21T04:23:41.423Z,20.42
2023-05-21T04:26:08.328Z,20.73
2023-05-21T04:28:35.393Z,20.42
2023-05-21T04:31:02.278Z,19.17
2023-05-21T04:33:28.958Z,19.50
2023-05-21T04:35:55.550Z,18.75
2023-05-21T04:38:22.080Z,18.23
2023-05-21T04:40:52.005Z,17.35
2023-05-21T04:43:25.673Z,17.73
2023-05-21T04:45:54.731Z,17.30
2023-05-21T04:48:25.582Z,16.95
2023-05-21T04:50:53.533Z,16.48
2023-05-21T04:53:20.613Z,16.90
2023-05-21T04:55:47.330Z,17.00
2023-05-21T04:58:14.600Z,16.35
2023-05-21T05:00:42.241Z,16.02
2023-05-21T05:03:09.111Z,15.57
2023-05-21T05:05:36.341Z,15.63
2023-05-21T05:08:04.130Z,15.63
2023-05-21T05:10:30.792Z,15.07
2023-05-21T05:12:57.495Z,15.35
2023-05-21T05:15:24.233Z,15.05
2023-05-21T05:17:50.888Z,15.70
2023-05-21T05:20:17.628Z,15.20
2023-05-21T05:22:44.432Z,14.77
2023-05-21T05:25:11.499Z,14.90
2023-05-21T05:27:38.729Z,14.00
2023-05-21T05:30:06.063Z,14.13
2023-05-21T05:32:32.842Z,15.05
2023-05-21T05:35:01.066Z,14.15
2023-05-21T05:37:28.969Z,14.70
2023-05-21T05:39:55.913Z,14.30
2023-05-21T05:42:22.626Z,14.63
2023-05-21T05:44:49.326Z,14.35
2023-05-21T05:47:16.553Z,15.02
2023-05-21T05:49:43.190Z,15.10
2023-05-21T05:52:09.955Z,14.30
2023-05-21T05:54:36.660Z,14.77
2023-05-21T05:57:03.572Z,13.55
2023-05-21T05:59:30.770Z,13.65
2023-05-21T06:01:57.396Z,14.60
2023-05-21T06:04:24.032Z,14.02
2023-05-21T06:06:50.908Z,14.02
2023-05-21T06:09:17.535Z,13.60
2023-05-21T06:11:44.182Z,13.77
2023-05-21T06:14:10.751Z,13.80
2023-05-21T06:16:37.496Z,13.98
2023-05-21T06:19:04.344Z,13.70
2023-05-21T06:21:30.939Z,14.32
2023-05-21T06:23:57.549Z,13.07
2023-05-21T06:26:24.290Z,12.80
2023-05-21T06:28:51.076Z,12.32
2023-05-21T06:31:17.938Z,13.27
2023-05-21T06:33:44.741Z,13.40
2023-05-21T06:36:11.542Z,13.20
2023-05-21T06:38:38.175Z,13.18
2023-05-21T06:41:04.950Z,13.32
2023-05-21T06:43:31.552Z,12.80
2023-05-21T06:45:58.198Z,12.98
2023-05-21T06:48:25.542Z,13.20
2023-05-21T06:50:52.193Z,12.55
2023-05-21T06:53:19.009Z,12.85
2023-05-21T06:55:45.866Z,13.32
2023-05-21T06:58:12.764Z,12.50
2023-05-21T07:00:39.363Z,12.45
2023-05-21T07:03:06.208Z,12.00
2023-05-21T07:05:32.911Z,12.15
2023-05-21T07:07:59.532Z,12.45
2023-05-21T07:10:26.197Z,12.73
2023-05-21T07:12:52.841Z,11.93
2023-05-21T07:15:19.488Z,12.10
2023-05-21T07:17:46.237Z,11.65
2023-05-21T07:20:13.689Z,11.90
2023-05-21T07:22:41.532Z,11.98
2023-05-21T07:25:08.726Z,11.38
2023-05-21T07:27:36.124Z,11.50
2023-05-21T07:30:02.975Z,11.20
2023-05-21T07:32:29.720Z,10.90
2023-05-21T07:34:56.768Z,11.30
2023-05-21T07:37:23.502Z,10.93
2023-05-21T07:39:50.162Z,11.52
2023-05-21T07:42:16.745Z,11.43
2023-05-21T07:44:43.268Z,11.20
2023-05-21T07:47:10.045Z,10.60
2023-05-21T07:49:36.694Z,10.82
2023-05-21T07:52:03.387Z,10.88
2023-05-21T07:54:30.028Z,10.48
2023-05-21T07:56:56.956Z,10.13
2023-05-21T07:59:23.523Z,9.82
2023-05-21T08:01:50.218Z,9.93
2023-05-21T08:04:17.099Z,10.55
2023-05-21T08:06:44.336Z,10.57
2023-05-21T08:09:12.209Z,9.98
2023-05-21T08:11:38.820Z,10.07
2023-05-21T08:14:05.735Z,10.10
2023-05-21T08:16:32.534Z,10.05
2023-05-21T08:18:59.198Z,9.88
2023-05-21T08:21:26.208Z,9.50
2023-05-21T08:23:53.255Z,9.60
2023-05-21T08:26:19.859Z,10.00
2023-05-21T08:28:46.445Z,9.55
2023-05-21T08:31:13.208Z,9.93
2023-05-21T08:33:39.934Z,9.85
2023-05-21T08:36:07.699Z,9.18
2023-05-21T08:38:34.898Z,9.07
2023-05-21T08:41:01.617Z,9.63
2023-05-21T08:43:29.146Z,9.30
2023-05-21T08:46:00.376Z,9.68
2023-05-21T08:48:27.655Z,9.80
2023-05-21T08:50:55.246Z,9.77
2023-05-21T08:53:27.956Z,9.07
2023-05-21T08:55:57.055Z,9.10
2023-05-21T08:58:23.900Z,8.98
2023-05-21T09:00:50.716Z,8.95
2023-05-21T09:03:17.889Z,8.90
2023-05-21T09:05:48.269Z,8.55
2023-05-21T09:08:35.765Z,8.68
2023-05-21T09:11:05.178Z,8.93
2023-05-21T09:13:33.108Z,8.30
2023-05-21T09:16:00.105Z,8.55
2023-05-21T09:18:29.276Z,8.57
2023-05-21T09:20:56.556Z,8.00
2023-05-21T09:23:23.307Z,8.10
2023-05-21T09:25:52.032Z,8.35
2023-05-21T09:28:19.571Z,8.45
2023-05-21T09:30:54.067Z,8.25
2023-05-21T09:33:29.385Z,8.38
2023-05-21T09:35:56.535Z,8.73
2023-05-21T09:38:23.915Z,8.77
2023-05-21T09:40:50.687Z,8.05
2023-05-21T09:43:17.633Z,8.05
2023-05-21T09:45:55.382Z,8.02
2023-05-21T09:51:18.723Z,8.20
2023-05-21T09:53:53.893Z,7.82
2023-05-21T09:56:24.882Z,8.07
2023-05-21T09:59:00.502Z,7.97
2023-05-21T10:01:28.165Z,7.70
2023-05-21T10:03:57.122Z,7.80
2023-05-21T10:06:28.399Z,7.50
2023-05-21T10:08:59.599Z,7.40
2023-05-21T10:11:30.517Z,8.00
2023-05-21T10:14:08.317Z,7.95
2023-05-21T10:16:36.253Z,7.43
2023-05-21T10:19:04.783Z,8.45
2023-05-21T10:21:33.410Z,8.10
2023-05-21T10:24:02.452Z,7.60
2023-05-21T10:26:30.319Z,7.95
2023-05-21T10:29:00.116Z,7.47
2023-05-21T10:31:27.840Z,8.23
2023-05-21T10:33:55.513Z,7.80
2023-05-21T10:36:24.459Z,8.25
2023-05-21T10:38:51.398Z,7.63
2023-05-21T10:41:20.091Z,7.60
2023-05-21T10:44:05.563Z,7.70
2023-05-21T10:46:50.394Z,7.63
2023-05-21T10:49:53.257Z,7.78
2023-05-21T10:52:50.091Z,7.93
2023-05-21T10:55:38.185Z,8.27
2023-05-21T10:58:43.004Z,7.28
2023-05-21T11:01:11.000Z,7.37
2023-05-21T11:03:38.257Z,7.07
2023-05-21T11:06:06.431Z,6.80
2023-05-21T11:08:37.232Z,7.72
2023-05-21T11:11:04.640Z,7.78
2023-05-21T11:13:49.025Z,6.93
2023-05-21T11:16:16.948Z,7.63
2023-05-21T11:18:43.566Z,7.57
2023-05-21T11:21:11.235Z,7.07
2023-05-21T11:23:57.186Z,7.47
2023-05-21T11:26:55.193Z,7.67
2023-05-21T11:29:33.474Z,7.32
2023-05-21T11:32:05.471Z,8.10
2023-05-21T11:34:48.783Z,7.57
2023-05-21T11:37:18.243Z,7.78
2023-05-21T11:39:45.653Z,7.70
2023-05-21T11:42:12.802Z,7.47
2023-05-21T11:44:48.185Z,7.97
2023-05-21T11:47:19.046Z,7.28
2023-05-21T11:49:46.610Z,7.78
2023-05-21T11:52:14.499Z,7.90
2023-05-21T11:54:52.989Z,7.20
2023-05-21T11:57:19.827Z,8.15
2023-05-21T11:59:46.916Z,7.55
2023-05-21T12:02:18.579Z,7.32
2023-05-21T12:04:48.325Z,7.37
2023-05-21T12:07:16.480Z,6.40
2023-05-21T12:09:44.633Z,6.53
2023-05-21T12:12:14.592Z,6.80
2023-05-21T12:14:45.417Z,6.72
2023-05-21T12:17:15.264Z,6.90
2023-05-21T12:19:42.064Z,6.40
2023-05-21T12:22:09.461Z,6.15
2023-05-21T12:24:37.782Z,6.10
2023-05-21T12:27:09.666Z,6.45
2023-05-21T12:29:38.656Z,6.27
2023-05-21T12:32:09.089Z,6.40
2023-05-21T12:34:48.600Z,6.13
2023-05-21T12:37:17.744Z,5.70
2023-05-21T12:39:45.749Z,5.90
2023-05-21T12:42:13.505Z,6.47
2023-05-21T12:44:44.562Z,6.38
2023-05-21T12:47:11.803Z,6.57
2023-05-21T12:49:44.753Z,6.35
2023-05-21T12:52:12.895Z,5.97
2023-05-21T12:54:48.856Z,5.80
2023-05-21T12:57:17.187Z,5.95
2023-05-21T12:59:45.678Z,6.68
2023-05-21T13:02:18.548Z,6.68
2023-05-21T13:04:45.387Z,6.53
2023-05-21T13:07:12.087Z,6.37
2023-05-21T13:09:38.938Z,6.53
2023-05-21T13:12:05.909Z,6.40
2023-05-21T13:14:32.649Z,5.90
2023-05-21T13:16:59.345Z,5.95
2023-05-21T13:19:26.354Z,5.43
2023-05-21T13:21:53.148Z,5.93
2023-05-21T13:24:19.831Z,5.22
2023-05-21T13:26:46.470Z,5.50
2023-05-21T13:29:14.864Z,6.32
2023-05-21T13:31:42.343Z,5.87
2023-05-21T13:34:09.114Z,5.60
2023-05-21T13:36:36.142Z,5.82
2023-05-21T13:39:02.965Z,5.47
2023-05-21T13:41:29.864Z,5.60
2023-05-21T13:43:56.694Z,5.53
2023-05-21T13:46:23.525Z,5.00
2023-05-21T13:48:50.420Z,5.90
2023-05-21T13:51:30.843Z,5.90
2023-05-21T13:54:03.771Z,6.05
2023-05-21T13:56:33.240Z,6.07
2023-05-21T13:59:00.072Z,5.60
2023-05-21T14:01:27.485Z,5.75
2023-05-21T14:03:54.229Z,5.88
2023-05-21T14:06:21.206Z,5.40
2023-05-21T14:08:47.933Z,5.67
2023-05-21T14:11:14.508Z,5.38
2023-05-21T14:13:41.300Z,5.72
2023-05-21T14:16:08.132Z,5.55
2023-05-21T14:18:34.728Z,5.57
2023-05-21T14:21:02.137Z,5.87
2023-05-21T14:23:28.845Z,5.65
2023-05-21T14:25:55.486Z,5.70
2023-05-21T14:28:22.492Z,5.63
2023-05-21T14:30:49.117Z,5.22
2023-05-21T14:33:16.213Z,5.40
2023-05-21T14:35:44.254Z,5.50
2023-05-21T14:38:11.153Z,5.45
2023-05-21T14:40:37.788Z,5.80
2023-05-21T14:43:05.672Z,5.82
2023-05-21T14:45:35.314Z,5.93
2023-05-21T14:48:08.169Z,5.40
2023-05-21T14:50:35.897Z,5.70
2023-05-21T14:53:09.942Z,5.35
2023-05-21T14:55:37.507Z,5.90
2023-05-21T14:58:05.748Z,5.40
2023-05-21T15:00:33.570Z,5.57
2023-05-21T15:03:01.183Z,5.80
2023-05-21T15:05:29.452Z,5.13
2023-05-21T15:07:59.469Z,4.97
2023-05-21T15:10:27.486Z,5.17
2023-05-21T15:12:54.255Z,5.10
2023-05-21T15:15:21.148Z,5.20
2023-05-21T15:17:48.742Z,4.80
2023-05-21T15:20:16.513Z,4.90
2023-05-21T15:22:43.153Z,4.90
2023-05-21T15:25:10.557Z,5.22
2023-05-21T15:27:37.216Z,4.80
2023-05-21T15:30:04.677Z,5.10
2023-05-21T15:32:31.642Z,4.80
2023-05-21T15:34:58.652Z,5.17
2023-05-21T15:37:26.163Z,5.05
2023-05-21T15:39:53.929Z,4.90
2023-05-21T15:42:20.632Z,5.00
2023-05-21T15:44:47.624Z,4.53
2023-05-21T15:47:14.463Z,5.10
2023-05-21T15:49:41.261Z,4.93
2023-05-21T15:52:07.846Z,4.93
2023-05-21T15:54:34.475Z,4.50
2023-05-21T15:57:01.308Z,4.95
2023-05-21T15:59:28.170Z,4.60
2023-05-21T16:01:56.068Z,4.90
2023-05-21T16:04:22.902Z,4.68
2023-05-21T16:06:49.562Z,4.90
2023-05-21T16:09:16.301Z,6.13
2023-05-21T16:11:44.747Z,4.63
2023-05-21T16:14:12.122Z,4.40
2023-05-21T16:16:39.146Z,4.60
2023-05-21T16:19:06.230Z,4.43
2023-05-21T16:21:33.768Z,4.55
2023-05-21T16:24:00.549Z,4.50
2023-05-21T16:26:27.106Z,4.47
2023-05-21T16:28:53.810Z,4.50
2023-05-21T16:31:21.308Z,4.28
2023-05-21T16:33:48.057Z,4.40
2023-05-21T16:36:16.260Z,4.10
2023-05-21T16:38:44.660Z,4.25
2023-05-21T16:41:11.662Z,4.55
2023-05-21T16:43:38.367Z,4.60
2023-05-21T16:46:05.049Z,4.60
2023-05-21T16:48:32.769Z,4.33
2023-05-21T16:50:59.868Z,4.00
2023-05-21T16:53:27.301Z,4.45
2023-05-21T16:55:53.926Z,4.13
2023-05-21T16:58:20.595Z,4.07
2023-05-21T17:00:47.301Z,4.30
2023-05-21T17:03:14.722Z,3.97
2023-05-21T17:05:41.868Z,4.47
2023-05-21T17:08:08.823Z,4.50
2023-05-21T17:10:35.675Z,4.63
2023-05-21T17:13:17.750Z,4.13
2023-05-21T17:15:48.658Z,4.30
2023-05-21T17:18:15.348Z,4.70
2023-05-21T17:20:43.700Z,4.80
2023-05-21T17:23:11.760Z,5.10
2023-05-21T17:25:39.070Z,5.17
2023-05-21T17:28:06.384Z,5.28
2023-05-21T17:30:33.281Z,5.10
2023-05-21T17:33:02.193Z,4.78
2023-05-21T17:35:29.290Z,4.25
2023-05-21T17:37:56.235Z,4.30
2023-05-21T17:40:24.450Z,4.50
2023-05-21T17:42:52.210Z,5.13
2023-05-21T17:45:18.970Z,4.60
2023-05-21T17:47:45.826Z,5.05
2023-05-21T17:50:12.841Z,4.40
2023-05-21T17:52:39.583Z,4.35
2023-05-21T17:55:07.529Z,4.88
2023-05-21T17:57:35.614Z,4.63
2023-05-21T18:00:04.829Z,4.70
2023-05-21T18:02:31.622Z,4.13
2023-05-21T18:04:58.479Z,3.97
2023-05-21T18:07:25.784Z,5.00
2023-05-21T18:09:52.417Z,4.85
2023-05-21T18:12:19.127Z,3.97
2023-05-21T18:14:45.818Z,4.60
2023-05-21T18:17:12.568Z,4.40
2023-05-21T18:19:39.174Z,4.05
2023-05-21T18:22:05.886Z,4.20
2023-05-21T18:24:32.556Z,4.57
2023-05-21T18:26:59.271Z,4.60
2023-05-21T18:29:25.960Z,4.40
2023-05-21T18:31:52.720Z,4.40
2023-05-21T18:34:19.319Z,4.32
2023-05-21T18:36:46.653Z,4.43
2023-05-21T18:39:13.295Z,4.30
2023-05-21T18:41:39.984Z,4.90
2023-05-21T18:44:06.882Z,4.47
2023-05-21T18:46:33.705Z,4.45
2023-05-21T18:49:00.712Z,4.38
2023-05-21T18:51:27.661Z,4.23
2023-05-21T18:53:54.246Z,4.97
2023-05-21T18:56:21.967Z,4.15
2023-05-21T18:58:48.681Z,4.57
2023-05-21T19:01:16.334Z,4.05
2023-05-21T19:03:43.245Z,4.30
2023-05-21T19:06:09.959Z,4.43
2023-05-21T19:08:36.693Z,3.92
2023-05-21T19:11:03.785Z,4.10
2023-05-21T19:13:30.424Z,4.28
2023-05-21T19:15:58.422Z,4.33
2023-05-21T19:18:30.378Z,4.72
2023-05-21T19:20:57.487Z,4.40
2023-05-21T19:23:24.827Z,4.78
2023-05-21T19:25:51.578Z,4.07
2023-05-21T19:28:18.911Z,4.37
2023-05-21T19:30:46.226Z,4.53
2023-05-21T19:33:13.545Z,4.30
2023-05-21T19:35:41.908Z,4.45
2023-05-21T19:38:11.194Z,4.43
2023-05-21T19:40:38.436Z,4.80
2023-05-21T19:43:05.472Z,4.50
2023-05-21T19:45:32.107Z,4.60
2023-05-21T19:47:59.762Z,4.43
2023-05-21T19:50:28.496Z,4.70
2023-05-21T19:52:57.054Z,4.20
2023-05-21T19:55:24.841Z,3.97
2023-05-21T19:57:51.842Z,4.30
2023-05-21T20:00:19.260Z,4.13
2023-05-21T20:02:46.413Z,4.45
2023-05-21T20:05:13.378Z,4.30
2023-05-21T20:07:40.172Z,4.30
2023-05-21T20:10:09.225Z,4.40
2023-05-21T20:12:36.684Z,4.25
2023-05-21T20:15:05.570Z,4.30
2023-05-21T20:17:34.085Z,4.30
2023-05-21T20:20:01.417Z,4.45
2023-05-21T20:22:28.185Z,4.28
2023-05-21T20:24:55.775Z,4.07
2023-05-21T20:27:23.137Z,4.43
2023-05-21T20:29:49.738Z,4.30
2023-05-21T20:32:16.416Z,4.05
2023-05-21T20:34:58.336Z,4.22
2023-05-21T20:37:32.275Z,4.78
2023-05-21T20:39:59.745Z,4.18
2023-05-21T20:42:34.538Z,4.07
2023-05-21T20:45:02.909Z,4.57
2023-05-21T20:47:30.180Z,4.63
2023-05-21T20:49:58.976Z,4.40
2023-05-21T20:52:25.927Z,4.38
2023-05-21T20:54:54.702Z,4.00
2023-05-21T20:57:26.003Z,4.60
2023-05-21T20:59:53.364Z,4.45
2023-05-21T21:02:21.105Z,4.07
2023-05-21T21:04:49.070Z,4.60
2023-05-21T21:07:18.074Z,4.13
2023-05-21T21:09:49.058Z,4.65
2023-05-21T21:12:25.974Z,4.18
2023-05-21T21:14:53.379Z,4.40
2023-05-21T21:17:20.130Z,4.28
2023-05-21T21:19:46.729Z,4.30
2023-05-21T21:22:18.320Z,4.30
2023-05-21T21:24:45.499Z,4.32
2023-05-21T21:27:12.277Z,4.00
2023-05-21T21:29:38.936Z,4.15
2023-05-21T21:32:06.119Z,4.30
2023-05-21T21:34:32.754Z,4.30
2023-05-21T21:36:59.512Z,4.25
2023-05-21T21:39:26.778Z,4.15
2023-05-21T21:41:53.509Z,4.40
2023-05-21T21:44:20.599Z,4.30
2023-05-21T21:46:47.324Z,4.20
2023-05-21T21:49:16.604Z,4.35
2023-05-21T21:51:46.775Z,4.53
2023-05-21T21:54:13.362Z,4.25
2023-05-21T21:56:40.044Z,3.80
2023-05-21T21:59:06.708Z,3.67
2023-05-21T22:01:33.661Z,4.15
2023-05-21T22:04:00.466Z,3.40
2023-05-21T22:06:28.552Z,4.18
2023-05-21T22:08:55.541Z,3.53
2023-05-21T22:11:23.008Z,4.03
2023-05-21T22:13:49.764Z,4.15
2023-05-21T22:16:16.561Z,3.75
2023-05-21T22:18:43.581Z,4.00
2023-05-21T22:21:14.003Z,3.57
2023-05-21T22:23:41.086Z,3.78
2023-05-21T22:26:07.871Z,3.90
2023-05-21T22:28:34.517Z,3.70
2023-05-21T22:31:01.319Z,4.10
2023-05-21T22:33:29.197Z,3.80
2023-05-21T22:35:56.742Z,3.67
2023-05-21T22:38:23.476Z,4.18
2023-05-21T22:40:50.353Z,3.65
2023-05-21T22:43:17.002Z,3.53
2023-05-21T22:45:44.264Z,3.40
2023-05-21T22:48:11.017Z,3.40
2023-05-21T22:50:38.621Z,3.42
2023-05-21T22:53:06.553Z,3.60
2023-05-21T22:55:33.303Z,3.58
2023-05-21T22:58:00.113Z,3.80
2023-05-21T23:00:27.265Z,3.50
2023-05-21T23:02:54.576Z,3.45
2023-05-21T23:05:22.151Z,3.20
2023-05-21T23:07:48.986Z,3.33
2023-05-21T23:10:15.835Z,3.17
2023-05-21T23:12:43.373Z,3.20
2023-05-21T23:15:10.726Z,3.83
2023-05-21T23:17:38.172Z,3.25
2023-05-21T23:20:11.358Z,3.25
2023-05-21T23:22:38.011Z,3.37
2023-05-21T23:25:05.232Z,3.05
2023-05-21T23:27:32.019Z,3.47
2023-05-21T23:29:58.615Z,3.05
2023-05-21T23:32:25.780Z,3.40
2023-05-21T23:34:52.452Z,3.63
2023-05-21T23:37:19.385Z,3.45
2023-05-21T23:39:49.437Z,3.42
2023-05-21T23:42:16.823Z,3.55
2023-05-21T23:44:43.556Z,3.40
2023-05-21T23:47:10.467Z,3.37
2023-05-21T23:49:37.140Z,3.55
2023-05-21T23:52:04.075Z,2.90
2023-05-21T23:54:30.872Z,3.72
2023-05-21T23:56:57.518Z,3.20
2023-05-21T23:59:24.142Z,3.10
